Portada
METAR-TAF:

METAR-TAF

Aeroports :

Àstrakhan, Rússia

latitud: 46-17N, longitud: 048-00-23E, altitud: 0 m

Observació

L'informe es va fer fa 44 minuts, a les 10:00 UTC
Vent 19 kt del Est/Sud-Est
Temperatura 18°C
Humitat 26%
Pressió 1003 hPa
Visibilitat 10 km o més
sense núvols per sota de 1500 mi sense presència de cumulonimbus.

METAR: URWA 301000Z 11010MPS CAVOK 18/M02 Q1003 R09/010070 NOSIG RMK QFE754/1006

Hora: 14:44 (10:44 UTC)

Pronòstic

L'informe es va fer fa 2 hores i 44 minuts, a les 08:00 UTC
Pronòstic vàlid del 30 a les 09 UTC al 30 a les 18 UTC
Vent 16 kt del Est amb ràfegues de 25 kt
Visibilitat 10 km o més
Núvols disperses a una alçada de 4000 ft
Temporalment
l' 30 a les 09 UTC al 30 a les 15 UTC
Vent 19 kt del Est/Sud-Est amb ràfegues de 29 kt
Temporalment
l' 30 a les 16 UTC al 30 a les 18 UTC
Vent 6 kt del Est/Sud-Est amb ràfegues de 16 kt

TAF: URWA 300800Z 3009/3018 10008G13MPS 9999 SCT040 TEMPO 3009/3015 12010G15MPS TEMPO 3016/3018 11003G08MPS

Observacions i pronòstics meteorològics de més de 4000 aeroports (METAR i TAF).

Les estacions disponibles són els punts grocs i vermells al mapa.

Posi el ratolí al punt desitjat per veure el nom de l'estació.

Feu clic per veure les observacions i els pronòstics meteorològics.

Per canviar el mapa: feu clic els botons verds amb una creu de color negre per apropar; al botó verd amb un guió per allunyar la imatge; o en les fletxes verdes per a mapes adjacents.


METAR-TAF: